Home > Products > Valid Products > MTR

000
SAUS41 KBOX 311055
MTRMQE
METAR KMQE 311054Z AUTO 27010KT 19/18 A2981 RMK AO1 SLP102 T01940183





000
SAUS41 KBOX 310955
MTRMQE
METAR KMQE 310954Z AUTO 26010KT 19/19 A2980 RMK AO1 SLP097 T01940189





000
SAUS41 KBOX 310855
MTRMQE
METAR KMQE 310854Z AUTO 27010KT 20/19 A2979 RMK AO1 SLP093 T02000194
55004





000
SAUS41 KBOX 310855
MTRMQE
METAR KMQE 310854Z AUTO 27010KT 20/19 A2979 RMK AO1 SLP093 T02000194
55004





000
SAUS41 KBOX 310755
MTRMQE
METAR KMQE 310754Z AUTO 27010KT 20/19 A2979 RMK AO1 SLP092 T02000194





000
SAUS41 KBOX 310655
MTRMQE
METAR KMQE 310654Z AUTO 26009KT 21/21 A2980 RMK AO1 SLP095 T02110206





000
SAUS41 KBOX 310555
MTRMQE
METAR KMQE 310554Z AUTO 25009KT 22/21 A2980 RMK AO1 SLP096 60003
T02170211 10228 20217 58004





000
SAUS41 KBOX 310555
MTRMQE
METAR KMQE 310554Z AUTO 25009KT 22/21 A2980 RMK AO1 SLP096 60003
T02170211 10228 20217 58004





000
SAUS41 KBOX 310455
MTRMQE
METAR KMQE 310454Z AUTO 23007KT 22/22 A2981 RMK AO1 SLP099 T02170217
403170217





000
SAUS41 KBOX 310355
MTRMQE
METAR KMQE 310354Z AUTO 22009KT 22/22 A2981 RMK AO1 SLP100 T02170217





000
SAUS41 KBOX 310255
MTRMQE
METAR KMQE 310254Z AUTO 21013KT 22/22 A2981 RMK AO1 SLP101 P0002
60003 T02220217 50002





000
SAUS41 KBOX 310155
MTRMQE
METAR KMQE 310154Z AUTO 22010KT 22/22 A2982 RMK AO1 SLP103 T02220217





000
SAUS41 KBOX 310055
MTRMQE
METAR KMQE 310054Z AUTO 21014KT 22/22 A2981 RMK AO1 SLP099 P0001
T02220217





000
SAUS41 KBOX 302355
MTRMQE
METAR KMQE 302354Z AUTO 21017G26KT 23/22 A2981 RMK AO1 PK WND
20026/2351 SLP099 60005 T02280217 10317 20228 51008





000
SAUS41 KBOX 302355
MTRMQE
METAR KMQE 302354Z AUTO 21017G26KT 23/22 A2981 RMK AO1 PK WND
20026/2351 SLP099 60005 T02280217 10317 20228 51008





000
SAUS41 KBOX 302255
MTRMQE
METAR KMQE 302254Z AUTO 19012KT 24/23 A2980 RMK AO1 PK WND
21028/2158 SLP098 P0005 T02390228





000
SAUS41 KBOX 302255
MTRMQE
METAR KMQE 302254Z AUTO 19012KT 24/23 A2980 RMK AO1 PK WND
21028/2158 SLP098 P0005 T02390228





000
SAUS41 KBOX 302155
MTRMQE
METAR KMQE 302154Z AUTO 20018G26KT 27/22 A2980 RMK AO1 PK WND
22030/2102 SLP097 T02670217





000
SAUS41 KBOX 302055
MTRMQE
METAR KMQE 302054Z AUTO 21021G30KT 28/22 A2978 RMK AO1 PK WND
21030/2051 SLP091 T02780217 56017





000
SAUS41 KBOX 301955
MTRMQE
METAR KMQE 301954Z AUTO 20014G21KT 29/22 A2979 RMK AO1 PK WND
20029/1917 SLP094 T02890217





000
SAUS41 KBOX 301955
MTRMQE
METAR KMQE 301954Z AUTO 20014G21KT 29/22 A2979 RMK AO1 PK WND
20029/1917 SLP094 T02890217





000
SAUS41 KBOX 301855
MTRMQE
METAR KMQE 301854Z AUTO 20019G27KT 30/22 A2981 RMK AO1 PK WND
21029/1831 SLP100 T03000217





000
SAUS41 KBOX 301755
MTRMQE
METAR KMQE 301754Z AUTO 23018G24KT 30/22 A2983 RMK AO1 PK WND
21026/1740 SLP107 T03000217 10306 20250 58014





000
SAUS41 KBOX 301655
MTRMQE
METAR KMQE 301654Z AUTO 20013G22KT 29/22 A2985 RMK AO1 SLP113
T02940217





000
SAUS41 KBOX 301555
MTRMQE
METAR KMQE 301554Z AUTO 22014G23KT 30/22 A2987 RMK AO1 SLP118
T03000222





000
SAUS41 KBOX 301455
MTRMQE
METAR KMQE 301454Z AUTO 22011G20KT 29/22 A2988 RMK AO1 SLP122
T02940217 58009





000
SAUS41 KBOX 301355
MTRMQE
METAR KMQE 301354Z AUTO 21009KT 29/22 A2988 RMK AO1 SLP124 T02890217





000
SAUS41 KBOX 301255
MTRMQE
METAR KMQE 301254Z AUTO 22009KT 27/22 A2990 RMK AO1 SLP130 T02670217





000
SAUS41 KBOX 301255
MTRMQE
METAR KMQE 301254Z AUTO 22009KT 27/22 A2990 RMK AO1 SLP130 T02670217





000
SAUS41 KBOX 301155
MTRMQE
METAR KMQE 301154Z AUTO 22009KT 24/21 A2990 RMK AO1 SLP131 T02440211
10244 20217 53002





000
SAUS41 KBOX 301155
MTRMQE
METAR KMQE 301154Z AUTO 22009KT 24/21 A2990 RMK AO1 SLP131 T02440211
10244 20217 53002





000
SAUS41 KBOX 301055
MTRMQE
METAR KMQE 301054Z AUTO 22009KT 23/21 A2990 RMK AO1 SLP129 T02280206





000
SAUS41 KBOX 301055
MTRMQE
METAR KMQE 301054Z AUTO 22009KT 23/21 A2990 RMK AO1 SLP129 T02280206





000
SAUS41 KBOX 300955
MTRMQE
METAR KMQE 300954Z AUTO 24009KT 22/20 A2990 RMK AO1 SLP129 T02220200





000
SAUS41 KBOX 300856
MTRMQE
METAR KMQE 300854Z AUTO 23009KT 22/19 A2990 RMK AO1 SLP129 T02220194
56005





000
SAUS41 KBOX 300755
MTRMQE
METAR KMQE 300754Z AUTO 23011KT 23/19 A2990 RMK AO1 SLP130 T02280189





000
SAUS41 KBOX 300655
MTRMQE
METAR KMQE 300654Z AUTO 24009KT 23/19 A2990 RMK AO1 SLP131 T02330189





000
SAUS41 KBOX 300555
MTRMQE
METAR KMQE 300554Z AUTO 24011KT 23/19 A2991 RMK AO1 SLP134 T02330189
10294 20233 58002





000
SAUS41 KBOX 300456
MTRMQE
METAR KMQE 300454Z AUTO 24011KT 24/19 A2992 RMK AO1 SLP134 T02440189
403280211





000
SAUS41 KBOX 300355
MTRMQE
METAR KMQE 300354Z AUTO 23009KT 25/19 A2992 RMK AO1 SLP135 T02500189





000
SAUS41 KBOX 300255
MTRMQE
METAR KMQE 300254Z AUTO 23009KT 26/19 A2992 RMK AO1 SLP136 T02560189
50002





000
SAUS41 KBOX 300255
MTRMQE
METAR KMQE 300254Z AUTO 23009KT 26/19 A2992 RMK AO1 SLP136 T02560189
50002





000
SAUS41 KBOX 300155
MTRMQE
METAR KMQE 300154Z AUTO 22009KT 27/20 A2992 RMK AO1 SLP138 T02670200





000
SAUS41 KBOX 300155
MTRMQE
METAR KMQE 300154Z AUTO 22009KT 27/20 A2992 RMK AO1 SLP138 T02670200





000
SAUS41 KBOX 300055
MTRMQE
METAR KMQE 300054Z AUTO 23010KT 27/19 A2992 RMK AO1 SLP135 T02720194





000
SAUS41 KBOX 292355
MTRMQE
METAR KMQE 292354Z AUTO 27010KT 29/18 A2991 RMK AO1 SLP135 T02890183
10328 20289 53002





000
SAUS41 KBOX 292255
MTRMQE
METAR KMQE 292254Z AUTO 27010KT 30/18 A2991 RMK AO1 SLP132 T03000183





000
SAUS41 KBOX 292255
MTRMQE
METAR KMQE 292254Z AUTO 27010KT 30/18 A2991 RMK AO1 SLP132 T03000183





000
SAUS41 KBOX 292155
MTRMQE
METAR KMQE 292154Z AUTO 25008KT 32/17 A2990 RMK AO1 SLP131 T03170172





000
SAUS41 KBOX 292055
MTRMQE
METAR KMQE 292054Z AUTO 26007KT 32/18 A2991 RMK AO1 SLP132 T03220178
58010





000
SAUS41 KBOX 292055
MTRMQE
METAR KMQE 292054Z AUTO 26007KT 32/18 A2991 RMK AO1 SLP132 T03220178
58010





000
SAUS41 KBOX 291955
MTRMQE
METAR KMQE 291954Z AUTO 26013G19KT 32/19 A2992 RMK AO1 SLP137
T03220189





000
SAUS41 KBOX 291955
MTRMQE
METAR KMQE 291954Z AUTO 26013G19KT 32/19 A2992 RMK AO1 SLP137
T03220189





000
SAUS41 KBOX 291855
MTRMQE
METAR KMQE 291854Z AUTO 28010G18KT 32/17 A2994 RMK AO1 SLP142
T03220172





000
SAUS41 KBOX 291755
MTRMQE
METAR KMQE 291754Z AUTO 27007G15KT 32/18 A2994 RMK AO1 SLP142
T03220178 10328 20239 56014





000
SAUS41 KBOX 291656
MTRMQE
METAR KMQE 291654Z AUTO 23008KT 210V270 32/18 A2995 RMK AO1 SLP147
T03170178





000
SAUS41 KBOX 291555
MTRMQE
METAR KMQE 291554Z AUTO VRB06KT 32/17 A2996 RMK AO1 SLP151 T03220172





000
SAUS41 KBOX 291455
MTRMQE
METAR KMQE 291454Z AUTO 00000KT 31/17 A2998 RMK AO1 SLP157 T03060172
50000





000
SAUS41 KBOX 291455
MTRMQE
METAR KMQE 291454Z AUTO 00000KT 31/17 A2998 RMK AO1 SLP157 T03060172
50000





000
SAUS41 KBOX 291355
MTRMQE
METAR KMQE 291354Z AUTO 30003KT 29/19 A2998 RMK AO1 SLP157 T02890189





000
SAUS41 KBOX 291255
MTRMQE
METAR KMQE 291254Z AUTO 32004KT 27/19 A2998 RMK AO1 SLP157 T02670194





000
SAUS41 KBOX 291155
MTRMQE
METAR KMQE 291154Z AUTO 31005KT 24/19 A2998 RMK AO1 SLP158 T02390189
10239 20211 51007





000
SAUS41 KBOX 291055
MTRMQE
METAR KMQE 291054Z AUTO 32008KT 22/18 A2997 RMK AO1 SLP155 T02170183





000
SAUS41 KBOX 290955
MTRMQE
METAR KMQE 290954Z AUTO 31009KT 21/18 A2997 RMK AO1 SLP153 T02110178





000
SAUS41 KBOX 290855
MTRMQE
METAR KMQE 290854Z AUTO 31007KT 21/18 A2996 RMK AO1 SLP150 T02110183
53001





000
SAUS41 KBOX 290755
MTRMQE
METAR KMQE 290754Z AUTO 31006KT 22/18 A2995 RMK AO1 SLP147 T02170183





000
SAUS41 KBOX 290655
MTRMQE
METAR KMQE 290654Z AUTO 27010KT 21/20 A2995 RMK AO1 SLP147 T02110200





000
SAUS41 KBOX 290655
MTRMQE
METAR KMQE 290654Z AUTO 27010KT 21/20 A2995 RMK AO1 SLP147 T02110200





000
SAUS41 KBOX 290555
MTRMQE
METAR KMQE 290554Z AUTO 24006KT 22/20 A2995 RMK AO1 SLP148 T02170200
10244 20217 58005





000
SAUS41 KBOX 290555
MTRMQE
METAR KMQE 290554Z AUTO 24006KT 22/20 A2995 RMK AO1 SLP148 T02170200
10244 20217 58005





000
SAUS41 KBOX 290455
MTRMQE
METAR KMQE 290454Z AUTO 23007KT 22/19 A2997 RMK AO1 SLP152 T02220194
403170194





000
SAUS41 KBOX 290355
MTRMQE
METAR KMQE 290354Z AUTO 25009KT 22/19 A2997 RMK AO1 SLP156 T02170189





000
SAUS41 KBOX 290255
MTRMQE
METAR KMQE 290254Z AUTO 23007KT 23/19 A2997 RMK AO1 SLP155 T02280189
50001





000
SAUS41 KBOX 290155
MTRMQE
METAR KMQE 290154Z AUTO 22007KT 23/19 A2998 RMK AO1 SLP157 T02280189





000
SAUS41 KBOX 290155
MTRMQE
METAR KMQE 290154Z AUTO 22007KT 23/19 A2998 RMK AO1 SLP157 T02280189





000
SAUS41 KBOX 290055
MTRMQE
METAR KMQE 290054Z AUTO 20006KT 24/19 A2998 RMK AO1 SLP157 T02390189





000
SAUS41 KBOX 282355
MTRMQE
METAR KMQE 282354Z AUTO 20005KT 24/20 A2997 RMK AO1 SLP153 T02440200
10317 20244 53008





000
SAUS41 KBOX 282355
MTRMQE
METAR KMQE 282354Z AUTO 20005KT 24/20 A2997 RMK AO1 SLP153 T02440200
10317 20244 53008





000
SAUS41 KBOX 282255
MTRMQE
METAR KMQE 282254Z AUTO 18007KT 26/21 A2995 RMK AO1 SLP149 T02610206





000
SAUS41 KBOX 282155
MTRMQE
METAR KMQE 282154Z AUTO 12004KT 28/21 A2995 RMK AO1 SLP148 T02830211





000
SAUS41 KBOX 282055
MTRMQE
METAR KMQE 282054Z AUTO 06005KT 29/20 A2994 RMK AO1 SLP146 T02890200
55002





000
SAUS41 KBOX 281955
MTRMQE
METAR KMQE 281954Z AUTO 06007KT 28/21 A2994 RMK AO1 SLP144 T02780206





000
SAUS41 KBOX 281855
MTRMQE
METAR KMQE 281854Z AUTO 28005KT 31/18 A2993 RMK AO1 SLP141 T03060183





000
SAUS41 KBOX 281755
MTRMQE
METAR KMQE 281754Z AUTO 35004KT 30/19 A2995 RMK AO1 SLP146 T03000194
10300 20206 58010





000
SAUS41 KBOX 281755
MTRMQE
METAR KMQE 281754Z AUTO 35004KT 30/19 A2995 RMK AO1 SLP146 T03000194
10300 20206 58010





000
SAUS41 KBOX 281655
MTRMQE
METAR KMQE 281654Z AUTO VRB05KT 29/20 A2996 RMK AO1 SLP152 T02940200





000
SAUS41 KBOX 281655
MTRMQE
METAR KMQE 281654Z AUTO VRB05KT 29/20 A2996 RMK AO1 SLP152 T02940200





000
SAUS41 KBOX 281555
MTRMQE
METAR KMQE 281554Z AUTO 34004KT 28/21 A2997 RMK AO1 SLP155 T02780206





000
SAUS41 KBOX 281455
MTRMQE
METAR KMQE 281454Z AUTO VRB04KT 26/21 A2998 RMK AO1 SLP158 T02610206
56005





000
SAUS41 KBOX 281355
MTRMQE
METAR KMQE 281354Z AUTO 23004KT 24/21 A2998 RMK AO1 SLP159 T02440206





000
SAUS41 KBOX 281355
MTRMQE
METAR KMQE 281354Z AUTO 23004KT 24/21 A2998 RMK AO1 SLP159 T02440206





000
SAUS41 KBOX 281255
MTRMQE
METAR KMQE 281254Z AUTO 22007KT 23/20 A2999 RMK AO1 SLP161 T02280200





000
SAUS41 KBOX 281255
MTRMQE
METAR KMQE 281254Z AUTO 22007KT 23/20 A2999 RMK AO1 SLP161 T02280200





000
SAUS41 KBOX 281155
MTRMQE
METAR KMQE 281154Z AUTO 24005KT 21/20 A3000 RMK AO1 SLP164 T02060200
10206 20194 50002





000
SAUS41 KBOX 281155
MTRMQE
METAR KMQE 281154Z AUTO 24005KT 21/20 A3000 RMK AO1 SLP164 T02060200
10206 20194 50002





    US Dept of Commerce
    National Oceanic and Atmospheric Administration
    National Weather Service
    1325 East West Highway
    Silver Spring, MD 20910
    Page Author: NWS Internet Services Team
Disclaimer
Information Quality
Credits
Glossary
Privacy Policy
Freedom of Information Act (FOIA)
About Us
Career Opportunities